Terminal Aerodrome Forecast
Issued by NWS

Home | Current Version | Previous Version | Text Only | Print | Product List | Glossary On
Versions: 1 2 3 4 5 6 7 8 9 10 11 12 13 14
000
FTUS45 KRIW 230536
TAFBPI
TAF
KBPI 230536Z 2306/2406 VRB06KT P6SM SCT090 BKN200
     FM231800 21010KT P6SM SCT080 BKN200
     FM232200 28012G19KT P6SM VCTS SCT035 BKN060CB
     FM240130 34009KT P6SM SCT070=

USA.gov is the U.S. government's official web portal to all federal, state and local government web resources and services.